createdAt,value
2022-10-11T00:02:12.945Z,7.72
2022-10-11T00:04:39.395Z,8.38
2022-10-11T00:07:05.962Z,8.70
2022-10-11T00:09:32.499Z,9.23
2022-10-11T00:11:58.982Z,8.75
2022-10-11T00:14:26.218Z,9.00
2022-10-11T00:16:52.892Z,8.35
2022-10-11T00:19:19.692Z,9.23
2022-10-11T00:21:46.213Z,10.60
2022-10-11T00:24:13.058Z,10.40
2022-10-11T00:26:43.220Z,10.60
2022-10-11T00:29:12.858Z,11.05
2022-10-11T00:31:39.634Z,10.05
2022-10-11T00:34:06.474Z,7.57
2022-10-11T00:36:33.031Z,8.23
2022-10-11T00:38:59.543Z,10.30
2022-10-11T00:41:26.035Z,10.60
2022-10-11T00:44:12.376Z,10.77
2022-10-11T00:46:39.977Z,7.10
2022-10-11T00:49:11.903Z,8.57
2022-10-11T00:51:45.236Z,11.70
2022-10-11T00:54:13.499Z,11.65
2022-10-11T00:56:40.389Z,11.50
2022-10-11T00:59:10.615Z,12.23
2022-10-11T01:01:37.229Z,9.82
2022-10-11T01:04:04.008Z,12.38
2022-10-11T01:06:30.459Z,13.68
2022-10-11T01:08:57.015Z,13.15
2022-10-11T01:11:24.891Z,12.48
2022-10-11T01:13:54.364Z,13.77
2022-10-11T01:16:25.671Z,11.35
2022-10-11T01:18:54.844Z,11.30
2022-10-11T01:21:33.500Z,12.95
2022-10-11T01:24:08.840Z,13.13
2022-10-11T01:26:41.582Z,13.25
2022-10-11T01:29:25.503Z,12.40
2022-10-11T01:32:06.967Z,13.50
2022-10-11T01:34:42.679Z,9.48
2022-10-11T01:37:13.108Z,13.68
2022-10-11T01:39:46.375Z,13.73
2022-10-11T01:42:13.442Z,13.90
2022-10-11T01:44:41.605Z,14.00
2022-10-11T01:47:08.037Z,14.45
2022-10-11T01:49:34.495Z,14.25
2022-10-11T01:52:03.633Z,14.93
2022-10-11T01:55:09.991Z,12.90
2022-10-11T01:57:55.223Z,13.93
2022-10-11T02:00:23.586Z,14.48
2022-10-11T02:02:55.830Z,15.77
2022-10-11T02:05:28.566Z,14.65
2022-10-11T02:07:58.875Z,16.40
2022-10-11T02:10:47.083Z,15.93
2022-10-11T02:13:18.564Z,16.60
2022-10-11T02:15:46.741Z,16.42
2022-10-11T02:18:16.038Z,16.38
2022-10-11T02:20:44.009Z,15.27
2022-10-11T02:23:12.031Z,16.95
2022-10-11T02:25:39.677Z,17.25
2022-10-11T02:28:09.543Z,16.27
2022-10-11T02:30:36.613Z,16.23
2022-10-11T02:33:05.624Z,17.30
2022-10-11T02:35:34.190Z,12.23
2022-10-11T02:38:11.790Z,17.65
2022-10-11T02:40:41.494Z,15.65
2022-10-11T02:43:11.102Z,11.57
2022-10-11T02:45:39.339Z,16.10
2022-10-11T02:48:07.280Z,15.55
2022-10-11T02:50:34.025Z,16.65
2022-10-11T02:53:00.563Z,14.73
2022-10-11T02:55:27.035Z,16.73
2022-10-11T02:57:53.468Z,16.40
2022-10-11T03:00:19.970Z,10.57
2022-10-11T03:02:46.420Z,17.17
2022-10-11T03:05:12.834Z,16.00
2022-10-11T03:07:39.337Z,14.48
2022-10-11T03:10:06.297Z,15.00
2022-10-11T03:12:32.961Z,14.15
2022-10-11T03:14:59.571Z,15.38
2022-10-11T03:17:42.828Z,15.45
2022-10-11T03:20:09.648Z,15.75
2022-10-11T03:22:36.647Z,14.68
2022-10-11T03:25:04.575Z,17.25
2022-10-11T03:27:31.713Z,16.45
2022-10-11T03:29:58.274Z,14.80
2022-10-11T03:32:24.805Z,16.65
2022-10-11T03:34:51.270Z,11.63
2022-10-11T03:37:17.778Z,17.08
2022-10-11T03:39:45.668Z,15.27
2022-10-11T03:42:12.791Z,11.07
2022-10-11T03:44:39.352Z,16.02
2022-10-11T03:47:06.151Z,13.85
2022-10-11T03:49:32.684Z,13.57
2022-10-11T03:51:59.247Z,14.73
2022-10-11T03:54:25.896Z,15.45
2022-10-11T03:56:52.499Z,15.20
2022-10-11T03:59:19.057Z,15.20
2022-10-11T04:01:45.582Z,17.20
2022-10-11T04:04:12.071Z,16.98
2022-10-11T04:06:38.519Z,14.13
2022-10-11T04:09:05.214Z,16.17
2022-10-11T04:11:31.848Z,16.20
2022-10-11T04:13:58.315Z,17.23
2022-10-11T04:16:24.749Z,14.43
2022-10-11T04:18:51.239Z,14.15
2022-10-11T04:21:17.994Z,15.25
2022-10-11T04:23:44.527Z,15.13
2022-10-11T04:26:11.003Z,14.73
2022-10-11T04:28:37.668Z,13.38
2022-10-11T04:31:05.249Z,17.00
2022-10-11T04:33:31.756Z,17.73
2022-10-11T04:35:58.175Z,16.73
2022-10-11T04:38:24.614Z,18.60
2022-10-11T04:40:51.241Z,14.98
2022-10-11T04:43:18.681Z,16.75
2022-10-11T04:45:45.198Z,16.17
2022-10-11T04:48:11.882Z,17.50
2022-10-11T04:50:38.368Z,17.13
2022-10-11T04:53:04.806Z,16.77
2022-10-11T04:55:31.336Z,17.27
2022-10-11T04:57:57.787Z,18.38
2022-10-11T05:00:24.223Z,16.35
2022-10-11T05:02:52.289Z,17.52
2022-10-11T05:05:18.768Z,17.38
2022-10-11T05:07:45.251Z,18.27
2022-10-11T05:10:11.803Z,17.08
2022-10-11T05:12:38.252Z,18.63
2022-10-11T05:15:04.987Z,19.08
2022-10-11T05:17:31.518Z,19.98
2022-10-11T05:19:57.978Z,18.65
2022-10-11T05:22:24.408Z,18.15
2022-10-11T05:24:50.897Z,17.65
2022-10-11T05:27:17.344Z,18.80
2022-10-11T05:29:43.803Z,16.85
2022-10-11T05:32:10.241Z,17.30
2022-10-11T05:34:36.681Z,19.75
2022-10-11T05:37:03.174Z,12.73
2022-10-11T05:39:29.713Z,14.65
2022-10-11T05:41:56.906Z,16.20
2022-10-11T05:44:23.457Z,13.63
2022-10-11T05:46:49.987Z,13.05
2022-10-11T05:49:16.420Z,9.40
2022-10-11T05:51:44.030Z,11.65
2022-10-11T05:54:10.579Z,12.98
2022-10-11T05:56:36.999Z,13.73
2022-10-11T05:59:04.373Z,12.00
2022-10-11T06:01:30.879Z,9.15
2022-10-11T06:03:57.382Z,11.55
2022-10-11T06:06:23.883Z,11.30
2022-10-11T06:08:50.513Z,12.75
2022-10-11T06:11:18.102Z,12.85
2022-10-11T06:13:44.659Z,12.38
2022-10-11T06:16:11.558Z,13.60
2022-10-11T06:18:38.021Z,14.07
2022-10-11T06:21:04.625Z,13.20
2022-10-11T06:23:31.175Z,15.32
2022-10-11T06:26:01.803Z,14.70
2022-10-11T06:28:29.547Z,15.13
2022-10-11T06:30:56.456Z,18.30
2022-10-11T06:33:23.763Z,17.90
2022-10-11T06:35:50.632Z,20.13
2022-10-11T06:38:17.190Z,19.92
2022-10-11T06:40:43.694Z,18.77
2022-10-11T06:43:10.143Z,20.35
2022-10-11T06:45:36.665Z,19.60
2022-10-11T06:48:05.652Z,15.93
2022-10-11T06:50:58.009Z,17.85
2022-10-11T06:53:19.319Z,17.30
2022-10-11T06:55:45.751Z,19.73
2022-10-11T06:58:12.191Z,18.30
2022-10-11T07:00:38.802Z,18.45
2022-10-11T07:03:05.368Z,18.85
2022-10-11T07:05:32.786Z,19.67
2022-10-11T07:07:59.440Z,17.73
2022-10-11T07:10:26.080Z,17.15
2022-10-11T07:12:52.719Z,18.40
2022-10-11T07:15:19.187Z,18.98
2022-10-11T07:17:45.640Z,18.05
2022-10-11T07:20:12.361Z,17.30
2022-10-11T07:22:38.844Z,16.40
2022-10-11T07:25:05.618Z,17.42
2022-10-11T07:27:32.051Z,17.85
2022-10-11T07:29:58.551Z,17.00
2022-10-11T07:32:25.033Z,16.85
2022-10-11T07:34:51.475Z,16.92
2022-10-11T07:37:18.021Z,17.67
2022-10-11T07:39:44.428Z,18.23
2022-10-11T07:42:11.048Z,17.88
2022-10-11T07:44:37.851Z,15.90
2022-10-11T07:47:08.943Z,16.05
2022-10-11T07:49:37.484Z,14.85
2022-10-11T07:52:04.304Z,13.82
2022-10-11T07:54:30.730Z,14.90
2022-10-11T07:56:57.185Z,14.63
2022-10-11T07:59:23.686Z,14.52
2022-10-11T08:01:50.387Z,14.70
2022-10-11T08:04:17.073Z,14.57
2022-10-11T08:06:43.573Z,13.95
2022-10-11T08:09:10.424Z,13.57
2022-10-11T08:11:37.675Z,14.73
2022-10-11T08:14:08.612Z,15.30
2022-10-11T08:16:38.861Z,14.18
2022-10-11T08:19:05.916Z,16.50
2022-10-11T08:21:32.764Z,13.55
2022-10-11T08:23:59.287Z,14.30
2022-10-11T08:26:25.824Z,15.07
2022-10-11T08:28:52.400Z,14.90
2022-10-11T08:31:19.422Z,14.93
2022-10-11T08:33:45.877Z,13.60
2022-10-11T08:36:12.485Z,13.88
2022-10-11T08:38:39.353Z,12.85
2022-10-11T08:41:15.049Z,14.20
2022-10-11T08:43:48.229Z,13.82
2022-10-11T08:46:15.246Z,13.90
2022-10-11T08:48:42.736Z,14.35
2022-10-11T08:51:13.966Z,14.30
2022-10-11T08:53:40.476Z,14.93
2022-10-11T08:56:07.669Z,11.93
2022-10-11T08:58:40.399Z,13.35
2022-10-11T09:01:11.419Z,15.32
2022-10-11T09:03:42.170Z,14.20
2022-10-11T09:06:14.536Z,12.95
2022-10-11T09:08:48.971Z,12.95
2022-10-11T09:11:38.667Z,12.38
2022-10-11T09:14:11.269Z,12.45
2022-10-11T09:16:37.863Z,12.20
2022-10-11T09:19:13.411Z,10.82
2022-10-11T09:21:39.890Z,12.32
2022-10-11T09:24:06.335Z,14.35
2022-10-11T09:26:40.284Z,13.48
2022-10-11T09:29:20.602Z,13.10
2022-10-11T09:31:53.149Z,12.40
2022-10-11T09:34:20.100Z,13.50
2022-10-11T09:37:05.586Z,12.18
2022-10-11T09:39:31.987Z,10.65
2022-10-11T09:42:09.083Z,10.85
2022-10-11T09:44:35.879Z,10.25
2022-10-11T09:47:02.494Z,11.35
2022-10-11T09:49:31.330Z,11.48
2022-10-11T09:51:58.843Z,10.80
2022-10-11T09:54:40.435Z,11.45
2022-10-11T09:57:07.139Z,11.85
2022-10-11T09:59:34.675Z,11.95
2022-10-11T10:02:13.541Z,11.75
2022-10-11T10:04:58.635Z,11.98
2022-10-11T10:07:25.656Z,11.10
2022-10-11T10:09:52.940Z,12.70
2022-10-11T10:12:29.628Z,12.27
2022-10-11T10:15:07.212Z,13.25
2022-10-11T10:17:34.470Z,12.40
2022-10-11T10:20:01.010Z,11.70
2022-10-11T10:22:30.383Z,12.35
2022-10-11T10:24:58.287Z,12.65
2022-10-11T10:27:29.230Z,12.32
2022-10-11T10:30:01.983Z,10.88
2022-10-11T10:32:32.603Z,12.18
2022-10-11T10:35:02.098Z,11.50
2022-10-11T10:37:38.849Z,13.02
2022-10-11T10:40:37.491Z,11.07
2022-10-11T10:43:04.238Z,11.43
2022-10-11T10:45:53.887Z,11.82
2022-10-11T10:48:20.330Z,11.95
2022-10-11T10:50:49.666Z,11.00
2022-10-11T10:53:19.126Z,11.18
2022-10-11T10:55:47.455Z,11.30
2022-10-11T10:58:18.503Z,11.50
2022-10-11T11:00:56.446Z,11.20
2022-10-11T11:03:22.885Z,11.95
2022-10-11T11:05:49.418Z,11.95
2022-10-11T11:08:24.815Z,11.35
2022-10-11T11:11:03.237Z,11.15
2022-10-11T11:13:44.928Z,10.10
2022-10-11T11:16:11.764Z,9.52
2022-10-11T11:18:38.155Z,11.18
2022-10-11T11:21:23.021Z,11.27
2022-10-11T11:23:52.329Z,11.70
2022-10-11T11:26:25.396Z,10.75
2022-10-11T11:29:21.044Z,10.70
2022-10-11T11:31:47.539Z,10.80
2022-10-11T11:34:20.175Z,10.85
2022-10-11T11:37:03.788Z,11.27
2022-10-11T11:39:30.225Z,10.60
2022-10-11T11:41:59.809Z,11.18
2022-10-11T11:44:34.616Z,10.85
2022-10-11T11:47:03.255Z,11.32
2022-10-11T11:49:40.266Z,12.30
2022-10-11T11:52:07.902Z,11.80
2022-10-11T11:54:43.844Z,12.05
2022-10-11T11:57:23.337Z,12.05
2022-10-11T11:59:58.135Z,12.07
2022-10-11T12:02:43.265Z,11.98
2022-10-11T12:05:11.027Z,11.10
2022-10-11T12:07:48.763Z,11.45
2022-10-11T12:10:26.477Z,11.23
2022-10-11T12:13:15.275Z,10.15
2022-10-11T12:15:54.296Z,10.88
2022-10-11T12:18:21.306Z,12.45
2022-10-11T12:21:00.362Z,12.77
2022-10-11T12:23:30.033Z,12.50
2022-10-11T12:26:15.094Z,11.32
2022-10-11T12:28:42.030Z,12.13
2022-10-11T12:31:40.291Z,11.73
2022-10-11T12:34:10.211Z,10.82
2022-10-11T12:36:36.673Z,12.00
2022-10-11T12:39:18.316Z,11.02
2022-10-11T12:41:47.964Z,10.98
2022-10-11T12:44:24.864Z,11.07
2022-10-11T12:46:51.502Z,12.07
2022-10-11T12:49:18.954Z,11.90
2022-10-11T12:51:51.533Z,9.68
2022-10-11T12:54:29.995Z,11.50
2022-10-11T12:57:12.001Z,10.75
2022-10-11T12:59:44.682Z,12.15
2022-10-11T13:02:37.179Z,11.57
2022-10-11T13:05:25.175Z,10.32
2022-10-11T13:07:53.350Z,10.35
2022-10-11T13:10:22.888Z,10.60
2022-10-11T13:12:49.925Z,10.52
2022-10-11T13:15:18.840Z,11.23
2022-10-11T13:17:45.500Z,11.52
2022-10-11T13:20:18.254Z,10.40
2022-10-11T13:22:47.698Z,9.55
2022-10-11T13:25:16.053Z,11.10
2022-10-11T13:27:42.680Z,10.98
2022-10-11T13:30:13.194Z,9.25
2022-10-11T13:32:39.648Z,10.73
2022-10-11T13:35:07.124Z,10.60
2022-10-11T13:37:46.685Z,10.68
2022-10-11T13:40:14.449Z,11.10
2022-10-11T13:42:40.943Z,11.40
2022-10-11T13:45:12.809Z,9.35
2022-10-11T13:47:39.551Z,10.15
2022-10-11T13:50:14.895Z,8.23
2022-10-11T13:53:16.831Z,9.88
2022-10-11T13:55:57.629Z,9.27
2022-10-11T13:58:24.027Z,9.93
2022-10-11T14:00:58.095Z,8.73
2022-10-11T14:03:27.491Z,10.25
2022-10-11T14:05:58.132Z,9.75
2022-10-11T14:08:33.566Z,11.30
2022-10-11T14:11:06.058Z,11.27
2022-10-11T14:13:42.890Z,12.35
2022-10-11T14:16:11.096Z,12.52
2022-10-11T14:18:42.954Z,11.98
2022-10-11T14:21:25.056Z,11.57
2022-10-11T14:23:52.551Z,12.10
2022-10-11T14:26:19.675Z,12.07
2022-10-11T14:28:48.930Z,13.07
2022-10-11T14:31:15.409Z,13.27
2022-10-11T14:33:41.853Z,14.63
2022-10-11T14:36:08.783Z,15.18
2022-10-11T14:38:35.410Z,15.55
2022-10-11T14:41:01.945Z,15.65
2022-10-11T14:43:28.451Z,15.00
2022-10-11T14:45:54.919Z,15.32
2022-10-11T14:48:43.150Z,15.23
2022-10-11T14:51:11.880Z,15.85
2022-10-11T14:53:42.036Z,14.10
2022-10-11T14:56:08.762Z,11.45
2022-10-11T14:58:35.424Z,11.02
2022-10-11T15:01:01.937Z,11.50
2022-10-11T15:03:28.414Z,11.07
2022-10-11T15:05:54.931Z,10.30
2022-10-11T15:08:21.431Z,11.75
2022-10-11T15:10:47.951Z,9.63
2022-10-11T15:13:14.391Z,9.45
2022-10-11T15:15:41.590Z,10.10
2022-10-11T15:18:11.154Z,10.35
2022-10-11T15:20:41.697Z,10.48
2022-10-11T15:23:12.464Z,10.10
2022-10-11T15:25:40.186Z,10.68
2022-10-11T15:28:06.856Z,9.20
2022-10-11T15:30:53.498Z,10.50
2022-10-11T15:33:20.378Z,10.10
2022-10-11T15:35:46.944Z,11.40
2022-10-11T15:38:17.535Z,11.27
2022-10-11T15:40:44.083Z,11.13
2022-10-11T15:43:10.612Z,11.48
2022-10-11T15:45:37.072Z,10.52
2022-10-11T15:48:03.594Z,10.70
2022-10-11T15:50:34.645Z,10.70
2022-10-11T15:53:01.219Z,9.90
2022-10-11T15:55:27.707Z,9.98
2022-10-11T15:57:54.257Z,10.77
2022-10-11T16:00:22.410Z,9.48
2022-10-11T16:02:50.600Z,10.18
2022-10-11T16:05:18.377Z,9.68
2022-10-11T16:07:44.795Z,10.13
2022-10-11T16:10:11.203Z,9.02
2022-10-11T16:12:37.681Z,8.25
2022-10-11T16:15:04.503Z,7.93
2022-10-11T16:17:31.007Z,8.50
2022-10-11T16:19:58.028Z,8.90
2022-10-11T16:22:24.807Z,9.20
2022-10-11T16:24:51.275Z,8.25
2022-10-11T16:27:18.963Z,8.25
2022-10-11T16:29:45.668Z,7.90
2022-10-11T16:32:12.131Z,7.78
2022-10-11T16:34:38.558Z,7.35
2022-10-11T16:37:05.013Z,7.13
2022-10-11T16:39:33.144Z,7.82
2022-10-11T16:41:59.638Z,8.45
2022-10-11T16:44:27.755Z,8.38
2022-10-11T16:46:55.129Z,7.90
2022-10-11T16:49:23.112Z,7.05
2022-10-11T16:51:50.006Z,6.95
2022-10-11T16:54:20.574Z,7.55
2022-10-11T16:56:48.189Z,7.88
2022-10-11T16:59:14.679Z,8.77
2022-10-11T17:01:41.261Z,7.95
2022-10-11T17:04:08.080Z,8.40
2022-10-11T17:06:34.659Z,8.75
2022-10-11T17:09:01.138Z,9.50
2022-10-11T17:11:27.648Z,8.85
2022-10-11T17:13:54.279Z,8.82
2022-10-11T17:16:21.342Z,9.20
2022-10-11T17:18:47.790Z,9.93
2022-10-11T17:21:15.361Z,9.32
2022-10-11T17:23:42.032Z,9.35
2022-10-11T17:26:11.337Z,8.13
2022-10-11T17:28:38.532Z,9.00
2022-10-11T17:31:05.840Z,9.13
2022-10-11T17:33:32.529Z,8.38
2022-10-11T17:35:59.774Z,8.95
2022-10-11T17:38:27.486Z,9.00
2022-10-11T17:41:00.934Z,8.75
2022-10-11T17:43:28.080Z,8.25
2022-10-11T17:45:55.451Z,8.95
2022-10-11T17:48:22.085Z,7.63
2022-10-11T17:50:50.737Z,7.40
2022-10-11T17:53:17.824Z,7.55
2022-10-11T17:55:44.479Z,7.75
2022-10-11T17:58:11.691Z,7.85
2022-10-11T18:00:38.604Z,7.47
2022-10-11T18:03:05.415Z,7.90
2022-10-11T18:05:31.951Z,7.82
2022-10-11T18:07:58.487Z,7.88
2022-10-11T18:10:25.020Z,8.27
2022-10-11T18:12:54.516Z,8.02
2022-10-11T18:15:21.000Z,8.60
2022-10-11T18:17:48.026Z,8.18
2022-10-11T18:20:14.473Z,7.45
2022-10-11T18:22:40.940Z,8.45
2022-10-11T18:25:07.611Z,8.50
2022-10-11T18:27:34.051Z,8.77
2022-10-11T18:30:00.505Z,10.43
2022-10-11T18:32:27.012Z,9.05
2022-10-11T18:34:53.609Z,9.73
2022-10-11T18:37:20.015Z,11.13
2022-10-11T18:39:46.574Z,10.60
2022-10-11T18:42:13.054Z,9.65
2022-10-11T18:44:39.560Z,10.27
2022-10-11T18:47:06.327Z,11.40
2022-10-11T18:49:32.804Z,11.00
2022-10-11T18:51:59.259Z,12.00
2022-10-11T18:54:25.743Z,10.02
2022-10-11T18:56:52.209Z,10.48
2022-10-11T18:59:20.043Z,10.43
2022-10-11T19:01:46.645Z,11.00
2022-10-11T19:04:15.806Z,11.60
2022-10-11T19:06:43.486Z,12.05
2022-10-11T19:09:14.589Z,10.15
2022-10-11T19:11:41.839Z,10.77
2022-10-11T19:14:11.152Z,10.75
2022-10-11T19:16:42.138Z,10.88
2022-10-11T19:19:10.006Z,10.75
2022-10-11T19:21:36.911Z,11.85
2022-10-11T19:24:03.424Z,10.82
2022-10-11T19:26:33.554Z,12.15
2022-10-11T19:29:03.241Z,11.80
2022-10-11T19:31:30.247Z,12.07
2022-10-11T19:33:57.344Z,12.73
2022-10-11T19:36:24.010Z,12.38
2022-10-11T19:38:51.036Z,13.23
2022-10-11T19:41:18.897Z,13.15
2022-10-11T19:43:46.018Z,12.75
2022-10-11T19:46:20.214Z,12.82
2022-10-11T19:48:51.179Z,13.75
2022-10-11T19:51:19.654Z,14.73
2022-10-11T19:53:46.148Z,14.73
2022-10-11T19:56:14.139Z,13.85
2022-10-11T19:58:40.569Z,15.63
2022-10-11T20:01:07.077Z,15.10
2022-10-11T20:03:34.184Z,15.68
2022-10-11T20:06:01.524Z,15.48
2022-10-11T20:08:31.249Z,15.90
2022-10-11T20:10:59.083Z,15.52
2022-10-11T20:13:29.984Z,14.25
2022-10-11T20:16:00.307Z,15.10
2022-10-11T20:18:27.704Z,16.42
2022-10-11T20:20:57.814Z,16.00
2022-10-11T20:23:27.605Z,16.70
2022-10-11T20:25:58.027Z,16.45
2022-10-11T20:28:25.246Z,17.33
2022-10-11T20:30:51.847Z,16.92
2022-10-11T20:33:18.382Z,16.35
2022-10-11T20:35:44.840Z,17.45
2022-10-11T20:38:11.366Z,17.73
2022-10-11T20:40:40.824Z,17.10
2022-10-11T20:43:07.279Z,17.13
2022-10-11T20:45:33.832Z,16.52
2022-10-11T20:48:00.279Z,18.08
2022-10-11T20:50:26.744Z,17.48
2022-10-11T20:52:53.238Z,17.20
2022-10-11T20:55:19.707Z,16.25
2022-10-11T20:57:46.114Z,17.40
2022-10-11T21:00:12.865Z,18.20
2022-10-11T21:02:39.281Z,17.27
2022-10-11T21:05:06.158Z,16.17
2022-10-11T21:07:32.921Z,16.40
2022-10-11T21:09:59.608Z,16.00
2022-10-11T21:12:26.194Z,16.23
2022-10-11T21:14:52.680Z,15.45
2022-10-11T21:17:19.205Z,16.65
2022-10-11T21:19:45.671Z,16.80
2022-10-11T21:22:12.183Z,16.45
2022-10-11T21:24:38.988Z,16.25
2022-10-11T21:27:05.615Z,16.30
2022-10-11T21:29:32.120Z,17.38
2022-10-11T21:31:58.555Z,17.73
2022-10-11T21:34:25.036Z,18.83
2022-10-11T21:36:51.521Z,21.60
2022-10-11T21:39:18.035Z,21.27
2022-10-11T21:41:44.527Z,21.98
2022-10-11T21:44:11.028Z,21.17
2022-10-11T21:47:04.759Z,22.35
2022-10-11T21:49:24.228Z,21.33
2022-10-11T21:51:51.012Z,21.38
2022-10-11T21:54:17.813Z,20.83
2022-10-11T21:56:44.359Z,22.27
2022-10-11T21:59:12.437Z,21.65
2022-10-11T22:01:39.474Z,23.27
2022-10-11T22:04:07.620Z,23.45
2022-10-11T22:06:34.613Z,23.02
2022-10-11T22:09:01.030Z,24.38
2022-10-11T22:11:27.822Z,25.13
2022-10-11T22:13:54.290Z,24.20
2022-10-11T22:16:20.815Z,25.20
2022-10-11T22:18:47.337Z,25.40
2022-10-11T22:21:15.039Z,26.40
2022-10-11T22:23:42.346Z,26.38
2022-10-11T22:26:10.623Z,26.33
2022-10-11T22:28:37.144Z,26.52
2022-10-11T22:31:07.174Z,26.58
2022-10-11T22:33:33.684Z,26.45
2022-10-11T22:36:00.984Z,26.23
2022-10-11T22:38:27.812Z,25.65
2022-10-11T22:40:54.472Z,26.02
2022-10-11T22:43:21.265Z,25.38
2022-10-11T22:45:48.135Z,27.20
2022-10-11T22:48:14.664Z,25.85
2022-10-11T22:50:41.139Z,26.38
2022-10-11T22:53:08.329Z,27.35
2022-10-11T22:55:35.429Z,26.42
2022-10-11T22:58:01.851Z,25.48
2022-10-11T23:00:28.383Z,25.85
2022-10-11T23:02:54.826Z,27.17
2022-10-11T23:05:21.267Z,27.15
2022-10-11T23:07:47.933Z,27.85
2022-10-11T23:10:14.656Z,27.38
2022-10-11T23:12:41.226Z,27.85
2022-10-11T23:15:08.020Z,26.65
2022-10-11T23:17:34.710Z,26.73
2022-10-11T23:20:01.343Z,27.58
2022-10-11T23:22:27.985Z,25.65
2022-10-11T23:24:54.470Z,25.77
2022-10-11T23:27:20.945Z,25.10
2022-10-11T23:29:47.502Z,25.00
2022-10-11T23:32:13.978Z,24.02
2022-10-11T23:34:40.433Z,25.17
2022-10-11T23:37:07.024Z,25.40
2022-10-11T23:39:33.483Z,25.83
2022-10-11T23:41:59.965Z,24.65
2022-10-11T23:44:26.461Z,25.65
2022-10-11T23:46:52.885Z,26.15
2022-10-11T23:49:19.364Z,25.30
2022-10-11T23:51:45.874Z,23.83
2022-10-11T23:54:12.350Z,23.60
2022-10-11T23:56:38.795Z,23.20
2022-10-11T23:59:05.295Z,23.23
